Del Norte — WDC2280 — position and weather

sailwx.info

Track history (hours):
 
Tides and Currents Weather Stations Pressure Air Temp Water Temp Dewpoint Dewpoint Depression Visibility Wind Speed Wind Dir Waves Ship Positions

Del Norte

Owner: Golden Gate Bridge,Hwy & Transportation District, Larkspur, CA. More information available from US FCC via Universal Licensing System and Coast Guard Vessel Documentation Center.

Last reported at 2016-Feb-13 03:34 UTC. Time now 2016-Feb-13 04:42 UTC.
Position N 37°53' W 122°25'.

Length 48 m.

Type: High speed craft. MMSI: 366990520.

Date/timePositionNaut miles runAvg speedWind from/ knotsBaromVisibWave heightAir tempDewpointWater temp
2016-Feb-13 03:34N 37°53' W 122°25'6 5.7
2016-Feb-13 02:33N 37°57' W 122°30'6 5.9
2016-Feb-13 01:34N 37°52' W 122°25'5 4.9
2016-Feb-13 00:34N 37°48' W 122°24'1010.4
2016-Feb-12 23:33N 37°57' W 122°30'4 4.5
2016-Feb-12 22:33N 37°54' W 122°26'4 4.5
2016-Feb-12 21:33N 37°57' W 122°31'0 0.0
2016-Feb-12 20:30N 37°57' W 122°31'0 0.0
2016-Feb-12 19:32N 37°57' W 122°31'7 7.2
2016-Feb-12 18:34N 37°51' W 122°25'5 5.3
2016-Feb-12 17:33N 37°56' W 122°28'1 0.8
2016-Feb-12 16:33N 37°55' W 122°28'8 8.1
2016-Feb-12 15:33N 37°48' W 122°24'5 4.6
2016-Feb-12 14:34N 37°52' W 122°25'6 6.0
2016-Feb-12 13:30N 37°57' W 122°31'6 0.6
2016-Feb-12 03:33N 37°52' W 122°25'6 6.2
2016-Feb-12 02:33N 37°57' W 122°30'7 7.0
2016-Feb-12 01:33N 37°51' W 122°25'4 3.7
2016-Feb-12 00:34N 37°48' W 122°24'1010.4
2016-Feb-11 23:34N 37°57' W 122°30'3 3.4
2016-Feb-11 22:33N 37°54' W 122°27'3 3.4
2016-Feb-11 21:33N 37°57' W 122°31'0 0.0
2016-Feb-11 20:31N 37°57' W 122°31'0 0.0
2016-Feb-11 19:33N 37°57' W 122°31'7 7.1
2016-Feb-11 18:33N 37°51' W 122°25'6 5.9
2016-Feb-11 17:33N 37°56' W 122°29'3 3.3
2016-Feb-11 16:34N 37°54' W 122°26'6 6.2
2016-Feb-11 15:33N 37°48' W 122°24'5 4.5
2016-Feb-11 14:34N 37°52' W 122°25'6 5.9
2016-Feb-11 13:30N 37°57' W 122°31'7 0.7
2016-Feb-11 03:34N 37°52' W 122°25'7 6.6
2016-Feb-11 02:33N 37°57' W 122°30'7 7.1
2016-Feb-11 01:34N 37°51' W 122°24'4 3.7
2016-Feb-11 00:33N 37°48' W 122°24'9 8.6
2016-Feb-10 23:33N 37°56' W 122°28'1 1.3
2016-Feb-10 22:33N 37°55' W 122°27'3 3.3
2016-Feb-10 21:33N 37°57' W 122°31'0 0.0
2016-Feb-10 20:32N 37°57' W 122°31'1 0.8
2016-Feb-10 19:34N 37°56' W 122°30'4 4.2
2016-Feb-10 18:34N 37°53' W 122°26'3 3.1
2016-Feb-10 17:33N 37°56' W 122°28'1 1.0
2016-Feb-10 16:34N 37°55' W 122°28'8 7.8
2016-Feb-10 15:33N 37°48' W 122°24'5 4.9
2016-Feb-10 14:34N 37°53' W 122°25'6 5.7
2016-Feb-10 13:30N 37°57' W 122°31'7 0.7
2016-Feb-10 03:34N 37°52' W 122°25'7 6.6
2016-Feb-10 02:33N 37°57' W 122°30'7 6.5
2016-Feb-10 01:34N 37°52' W 122°25'4 4.2
2016-Feb-10 00:34N 37°48' W 122°24'1010.4
2016-Feb-09 23:34N 37°57' W 122°30'5 4.7
2016-Feb-09 22:34N 37°54' W 122°26'5 4.7
2016-Feb-09 21:33N 37°57' W 122°31'0 0.0
2016-Feb-09 20:33N 37°57' W 122°31'0 0.0
2016-Feb-09 19:33N 37°57' W 122°31'6 6.4
2016-Feb-09 18:34N 37°52' W 122°25'4 4.4
2016-Feb-09 17:33N 37°56' W 122°28'1 0.7
2016-Feb-09 16:33N 37°55' W 122°28'8 8.1
2016-Feb-09 15:34N 37°48' W 122°24'5 4.6
2016-Feb-09 14:34N 37°52' W 122°25'6 6.2
2016-Feb-09 13:33N 37°57' W 122°31'6 0.6
2016-Feb-09 03:34N 37°52' W 122°25'6 6.4
2016-Feb-09 02:33N 37°57' W 122°30'7 7.1
2016-Feb-09 01:34N 37°51' W 122°25'4 3.6
2016-Feb-09 00:34N 37°48' W 122°23'1010.3
2016-Feb-08 23:33N 37°57' W 122°30'5 4.8
2016-Feb-08 22:34N 37°53' W 122°26'5 4.7
2016-Feb-08 21:33N 37°57' W 122°31'0 0.0
2016-Feb-08 20:33N 37°57' W 122°31'0 0.0
2016-Feb-08 19:33N 37°57' W 122°31'8 7.7
2016-Feb-08 18:33N 37°51' W 122°25'6 6.4
2016-Feb-08 17:33N 37°56' W 122°29'3 2.6
2016-Feb-08 16:34N 37°54' W 122°27'7 6.8
2016-Feb-08 15:33N 37°48' W 122°24'4 4.3
2016-Feb-08 14:34N 37°52' W 122°24'7 6.5
2016-Feb-08 13:31N 37°57' W 122°31'0 0.0
2016-Feb-07 06:11N 37°57' W 122°30'1016.7
2016-Feb-07 05:33N 37°48' W 122°24'0 0.1
2016-Feb-07 03:34N 37°48' W 122°23'5 5.4
2016-Feb-07 02:33N 37°51' W 122°29'5 4.9
2016-Feb-07 01:34N 37°49' W 122°23'10 9.7
2016-Feb-07 00:33N 37°57' W 122°31'10 9.9
2016-Feb-06 23:34N 37°49' W 122°23'10 9.9
2016-Feb-06 22:34N 37°57' W 122°31'0 0.1
2016-Feb-06 21:33N 37°57' W 122°31'6 5.7
2016-Feb-06 20:34N 37°53' W 122°25'6 0.4
2016-Feb-06 07:11N 37°57' W 122°31'1116.8
2016-Feb-06 06:34N 37°48' W 122°24'1010.3
2016-Feb-06 05:33N 37°57' W 122°30'1010.2
2016-Feb-06 04:34N 37°48' W 122°23'2 1.7
2016-Feb-06 03:34N 37°50' W 122°23'9 8.9
2016-Feb-06 02:33N 37°57' W 122°30'5 5.2
2016-Feb-06 01:34N 37°53' W 122°26'6 5.5
2016-Feb-06 00:34N 37°48' W 122°23'1010.2
2016-Feb-05 23:33N 37°57' W 122°30'4 4.5
2016-Feb-05 22:34N 37°53' W 122°26'5 4.6
2016-Feb-05 21:34N 37°57' W 122°30'9 8.6
2016-Feb-05 20:34N 37°50' W 122°24'9 8.5
2016-Feb-05 19:33N 37°57' W 122°30'6 6.4
2016-Feb-05 18:34N 37°52' W 122°25'5 5.2
2016-Feb-05 17:34N 37°56' W 122°29'1 1.4
2016-Feb-05 16:34N 37°55' W 122°28'8 8.2
2016-Feb-05 15:33N 37°48' W 122°24'4 3.9
2016-Feb-05 14:34N 37°52' W 122°24'7 7.0
2016-Feb-05 13:33N 37°57' W 122°31'0 0.0
2016-Feb-05 07:04N 37°57' W 122°31'1020.7
2016-Feb-05 06:34N 37°48' W 122°24'10 9.7
2016-Feb-05 05:33N 37°56' W 122°30'10 9.7
2016-Feb-05 04:33N 37°48' W 122°24'4 4.2
2016-Feb-05 03:34N 37°52' W 122°24'7 6.5
2016-Feb-05 02:33N 37°57' W 122°30'5 5.5
2016-Feb-05 01:34N 37°53' W 122°25'5 5.1
2016-Feb-05 00:33N 37°48' W 122°23'1010.4
2016-Feb-04 23:33N 37°57' W 122°30'4 3.8
2016-Feb-04 22:34N 37°54' W 122°27'4 3.8
2016-Feb-04 21:34N 37°57' W 122°31'8 7.8
2016-Feb-04 20:33N 37°51' W 122°24'8 7.8
2016-Feb-04 19:33N 37°57' W 122°30'6 6.4
2016-Feb-04 18:34N 37°52' W 122°25'5 4.5
2016-Feb-04 17:34N 37°56' W 122°28'0 0.5
2016-Feb-04 16:34N 37°55' W 122°28'8 8.2
2016-Feb-04 15:33N 37°48' W 122°24'4 4.1
2016-Feb-04 14:34N 37°52' W 122°24'7 6.7
2016-Feb-04 13:32N 37°57' W 122°31'0 0.0
2016-Feb-04 06:27N 37°57' W 122°30'3 3.7
2016-Feb-04 05:34N 37°54' W 122°27'7 7.2
2016-Feb-04 04:34N 37°48' W 122°24'4 4.2
2016-Feb-04 03:34N 37°52' W 122°25'7 6.7
2016-Feb-04 02:33N 37°57' W 122°30'6 6.3
2016-Feb-04 01:34N 37°52' W 122°25'4 4.4
2016-Feb-04 00:33N 37°48' W 122°23'1010.3
2016-Feb-03 23:33N 37°57' W 122°30'4 4.4
2016-Feb-03 22:34N 37°54' W 122°26'5 4.5
2016-Feb-03 21:33N 37°57' W 122°30'8 8.5
2016-Feb-03 20:34N 37°50' W 122°24'8 8.5
2016-Feb-03 19:33N 37°57' W 122°30'7 7.1
2016-Feb-03 18:34N 37°51' W 122°25'6 5.8
2016-Feb-03 17:33N 37°56' W 122°29'1 0.9
2016-Feb-03 16:34N 37°56' W 122°28'9 8.5
2016-Feb-03 15:34N 37°48' W 122°24'4 4.4
2016-Feb-03 14:34N 37°52' W 122°25'7 6.4
2016-Feb-03 13:32N 37°57' W 122°31'0 0.0
2016-Feb-03 06:31N 37°57' W 122°31'3 3.1
2016-Feb-03 05:34N 37°55' W 122°27'8 7.7
2016-Feb-03 04:33N 37°48' W 122°24'3 2.9
2016-Feb-03 03:34N 37°51' W 122°24'  
Track history (hours):
 
Tides and Currents Weather Stations Pressure Air Temp Water Temp Dewpoint Dewpoint Depression Visibility Wind Speed Wind Dir Waves Ship Positions

Del Norte

Owner: Golden Gate Bridge,Hwy & Transportation District, Larkspur, CA. More information available from US FCC via Universal Licensing System and Coast Guard Vessel Documentation Center.

Last reported at 2016-Feb-13 03:34 UTC. Time now 2016-Feb-13 04:42 UTC.
Position N 37°53' W 122°25'.

Length 48 m.

Type: High speed craft. MMSI: 366990520.

Date/timePositionNaut miles runAvg speedWind from/ knotsBaromVisibWave heightAir tempDewpointWater temp
2016-Feb-13 03:34N 37°53' W 122°25'6 5.7
2016-Feb-13 02:33N 37°57' W 122°30'6 5.9
2016-Feb-13 01:34N 37°52' W 122°25'5 4.9
2016-Feb-13 00:34N 37°48' W 122°24'1010.4
2016-Feb-12 23:33N 37°57' W 122°30'4 4.5
2016-Feb-12 22:33N 37°54' W 122°26'4 4.5
2016-Feb-12 21:33N 37°57' W 122°31'0 0.0
2016-Feb-12 20:30N 37°57' W 122°31'0 0.0
2016-Feb-12 19:32N 37°57' W 122°31'7 7.2
2016-Feb-12 18:34N 37°51' W 122°25'5 5.3
2016-Feb-12 17:33N 37°56' W 122°28'1 0.8
2016-Feb-12 16:33N 37°55' W 122°28'8 8.1
2016-Feb-12 15:33N 37°48' W 122°24'5 4.6
2016-Feb-12 14:34N 37°52' W 122°25'6 6.0
2016-Feb-12 13:30N 37°57' W 122°31'6 0.6
2016-Feb-12 03:33N 37°52' W 122°25'6 6.2
2016-Feb-12 02:33N 37°57' W 122°30'7 7.0
2016-Feb-12 01:33N 37°51' W 122°25'4 3.7
2016-Feb-12 00:34N 37°48' W 122°24'1010.4
2016-Feb-11 23:34N 37°57' W 122°30'3 3.4
2016-Feb-11 22:33N 37°54' W 122°27'3 3.4
2016-Feb-11 21:33N 37°57' W 122°31'0 0.0
2016-Feb-11 20:31N 37°57' W 122°31'0 0.0
2016-Feb-11 19:33N 37°57' W 122°31'7 7.1
2016-Feb-11 18:33N 37°51' W 122°25'6 5.9
2016-Feb-11 17:33N 37°56' W 122°29'3 3.3
2016-Feb-11 16:34N 37°54' W 122°26'6 6.2
2016-Feb-11 15:33N 37°48' W 122°24'5 4.5
2016-Feb-11 14:34N 37°52' W 122°25'6 5.9
2016-Feb-11 13:30N 37°57' W 122°31'7 0.7
2016-Feb-11 03:34N 37°52' W 122°25'7 6.6
2016-Feb-11 02:33N 37°57' W 122°30'7 7.1
2016-Feb-11 01:34N 37°51' W 122°24'4 3.7
2016-Feb-11 00:33N 37°48' W 122°24'9 8.6
2016-Feb-10 23:33N 37°56' W 122°28'1 1.3
2016-Feb-10 22:33N 37°55' W 122°27'3 3.3
2016-Feb-10 21:33N 37°57' W 122°31'0 0.0
2016-Feb-10 20:32N 37°57' W 122°31'1 0.8
2016-Feb-10 19:34N 37°56' W 122°30'4 4.2
2016-Feb-10 18:34N 37°53' W 122°26'3 3.1
2016-Feb-10 17:33N 37°56' W 122°28'1 1.0
2016-Feb-10 16:34N 37°55' W 122°28'8 7.8
2016-Feb-10 15:33N 37°48' W 122°24'5 4.9
2016-Feb-10 14:34N 37°53' W 122°25'6 5.7
2016-Feb-10 13:30N 37°57' W 122°31'7 0.7
2016-Feb-10 03:34N 37°52' W 122°25'7 6.6
2016-Feb-10 02:33N 37°57' W 122°30'7 6.5
2016-Feb-10 01:34N 37°52' W 122°25'4 4.2
2016-Feb-10 00:34N 37°48' W 122°24'1010.4
2016-Feb-09 23:34N 37°57' W 122°30'5 4.7
2016-Feb-09 22:34N 37°54' W 122°26'5 4.7
2016-Feb-09 21:33N 37°57' W 122°31'0 0.0
2016-Feb-09 20:33N 37°57' W 122°31'0 0.0
2016-Feb-09 19:33N 37°57' W 122°31'6 6.4
2016-Feb-09 18:34N 37°52' W 122°25'4 4.4
2016-Feb-09 17:33N 37°56' W 122°28'1 0.7
2016-Feb-09 16:33N 37°55' W 122°28'8 8.1
2016-Feb-09 15:34N 37°48' W 122°24'5 4.6
2016-Feb-09 14:34N 37°52' W 122°25'6 6.2
2016-Feb-09 13:33N 37°57' W 122°31'6 0.6
2016-Feb-09 03:34N 37°52' W 122°25'6 6.4
2016-Feb-09 02:33N 37°57' W 122°30'7 7.1
2016-Feb-09 01:34N 37°51' W 122°25'4 3.6
2016-Feb-09 00:34N 37°48' W 122°23'1010.3
2016-Feb-08 23:33N 37°57' W 122°30'5 4.8
2016-Feb-08 22:34N 37°53' W 122°26'5 4.7
2016-Feb-08 21:33N 37°57' W 122°31'0 0.0
2016-Feb-08 20:33N 37°57' W 122°31'0 0.0
2016-Feb-08 19:33N 37°57' W 122°31'8 7.7
2016-Feb-08 18:33N 37°51' W 122°25'6 6.4
2016-Feb-08 17:33N 37°56' W 122°29'3 2.6
2016-Feb-08 16:34N 37°54' W 122°27'7 6.8
2016-Feb-08 15:33N 37°48' W 122°24'4 4.3
2016-Feb-08 14:34N 37°52' W 122°24'7 6.5
2016-Feb-08 13:31N 37°57' W 122°31'0 0.0
2016-Feb-07 06:11N 37°57' W 122°30'1016.7
2016-Feb-07 05:33N 37°48' W 122°24'0 0.1
2016-Feb-07 03:34N 37°48' W 122°23'5 5.4
2016-Feb-07 02:33N 37°51' W 122°29'5 4.9
2016-Feb-07 01:34N 37°49' W 122°23'10 9.7
2016-Feb-07 00:33N 37°57' W 122°31'10 9.9
2016-Feb-06 23:34N 37°49' W 122°23'10 9.9
2016-Feb-06 22:34N 37°57' W 122°31'0 0.1
2016-Feb-06 21:33N 37°57' W 122°31'6 5.7
2016-Feb-06 20:34N 37°53' W 122°25'6 0.4
2016-Feb-06 07:11N 37°57' W 122°31'1116.8
2016-Feb-06 06:34N 37°48' W 122°24'1010.3
2016-Feb-06 05:33N 37°57' W 122°30'1010.2
2016-Feb-06 04:34N 37°48' W 122°23'2 1.7
2016-Feb-06 03:34N 37°50' W 122°23'9 8.9
2016-Feb-06 02:33N 37°57' W 122°30'5 5.2
2016-Feb-06 01:34N 37°53' W 122°26'6 5.5
2016-Feb-06 00:34N 37°48' W 122°23'1010.2
2016-Feb-05 23:33N 37°57' W 122°30'4 4.5
2016-Feb-05 22:34N 37°53' W 122°26'5 4.6
2016-Feb-05 21:34N 37°57' W 122°30'9 8.6
2016-Feb-05 20:34N 37°50' W 122°24'9 8.5
2016-Feb-05 19:33N 37°57' W 122°30'6 6.4
2016-Feb-05 18:34N 37°52' W 122°25'5 5.2
2016-Feb-05 17:34N 37°56' W 122°29'1 1.4
2016-Feb-05 16:34N 37°55' W 122°28'8 8.2
2016-Feb-05 15:33N 37°48' W 122°24'4 3.9
2016-Feb-05 14:34N 37°52' W 122°24'7 7.0
2016-Feb-05 13:33N 37°57' W 122°31'0 0.0
2016-Feb-05 07:04N 37°57' W 122°31'1020.7
2016-Feb-05 06:34N 37°48' W 122°24'10 9.7
2016-Feb-05 05:33N 37°56' W 122°30'10 9.7
2016-Feb-05 04:33N 37°48' W 122°24'4 4.2
2016-Feb-05 03:34N 37°52' W 122°24'7 6.5
2016-Feb-05 02:33N 37°57' W 122°30'5 5.5
2016-Feb-05 01:34N 37°53' W 122°25'5 5.1
2016-Feb-05 00:33N 37°48' W 122°23'1010.4
2016-Feb-04 23:33N 37°57' W 122°30'4 3.8
2016-Feb-04 22:34N 37°54' W 122°27'4 3.8
2016-Feb-04 21:34N 37°57' W 122°31'8 7.8
2016-Feb-04 20:33N 37°51' W 122°24'8 7.8
2016-Feb-04 19:33N 37°57' W 122°30'6 6.4
2016-Feb-04 18:34N 37°52' W 122°25'5 4.5
2016-Feb-04 17:34N 37°56' W 122°28'0 0.5
2016-Feb-04 16:34N 37°55' W 122°28'8 8.2
2016-Feb-04 15:33N 37°48' W 122°24'4 4.1
2016-Feb-04 14:34N 37°52' W 122°24'7 6.7
2016-Feb-04 13:32N 37°57' W 122°31'0 0.0
2016-Feb-04 06:27N 37°57' W 122°30'3 3.7
2016-Feb-04 05:34N 37°54' W 122°27'7 7.2
2016-Feb-04 04:34N 37°48' W 122°24'4 4.2
2016-Feb-04 03:34N 37°52' W 122°25'7 6.7
2016-Feb-04 02:33N 37°57' W 122°30'6 6.3
2016-Feb-04 01:34N 37°52' W 122°25'4 4.4
2016-Feb-04 00:33N 37°48' W 122°23'1010.3
2016-Feb-03 23:33N 37°57' W 122°30'4 4.4
2016-Feb-03 22:34N 37°54' W 122°26'5 4.5
2016-Feb-03 21:33N 37°57' W 122°30'8 8.5
2016-Feb-03 20:34N 37°50' W 122°24'8 8.5
2016-Feb-03 19:33N 37°57' W 122°30'7 7.1
2016-Feb-03 18:34N 37°51' W 122°25'6 5.8
2016-Feb-03 17:33N 37°56' W 122°29'1 0.9
2016-Feb-03 16:34N 37°56' W 122°28'9 8.5
2016-Feb-03 15:34N 37°48' W 122°24'4 4.4
2016-Feb-03 14:34N 37°52' W 122°25'7 6.4
2016-Feb-03 13:32N 37°57' W 122°31'0 0.0
2016-Feb-03 06:31N 37°57' W 122°31'3 3.1
2016-Feb-03 05:34N 37°55' W 122°27'8 7.7
2016-Feb-03 04:33N 37°48' W 122°24'3 2.9
2016-Feb-03 03:34N 37°51' W 122°24'  

Dump ship's entire track history